createdAt,value
2023-05-13T00:03:10.435Z,13.62
2023-05-13T00:07:13.882Z,13.59
2023-05-13T00:11:17.234Z,13.61
2023-05-13T00:15:20.802Z,13.60
2023-05-13T00:19:26.064Z,13.60
2023-05-13T00:23:29.561Z,13.59
2023-05-13T00:27:33.169Z,13.59
2023-05-13T00:31:37.752Z,13.59
2023-05-13T00:35:42.768Z,13.57
2023-05-13T00:39:46.031Z,13.57
2023-05-13T00:43:49.455Z,13.54
2023-05-13T00:47:53.949Z,13.55
2023-05-13T00:51:58.979Z,13.54
2023-05-13T00:56:02.615Z,13.49
2023-05-13T01:08:37.335Z,13.50
2023-05-13T01:12:43.859Z,13.50
2023-05-13T01:16:51.769Z,13.48
2023-05-13T01:20:56.837Z,13.46
2023-05-13T01:25:02.052Z,13.47
2023-05-13T01:29:05.437Z,13.46
2023-05-13T01:33:09.016Z,13.44
2023-05-13T01:37:12.843Z,13.45
2023-05-13T01:41:18.371Z,13.45
2023-05-13T01:45:21.947Z,13.45
2023-05-13T01:49:26.007Z,13.43
2023-05-13T01:53:29.658Z,13.44
2023-05-13T01:57:34.812Z,13.37
2023-05-13T02:01:38.300Z,13.33
2023-05-13T02:05:42.169Z,13.42
2023-05-13T02:09:45.791Z,13.42
2023-05-13T02:13:51.159Z,13.41
2023-05-13T02:17:54.929Z,13.44
2023-05-13T02:21:58.418Z,13.45
2023-05-13T02:26:01.841Z,13.46
2023-05-13T02:30:08.947Z,13.46
2023-05-13T02:34:12.520Z,13.43
2023-05-13T02:38:15.989Z,13.46
2023-05-13T02:42:19.671Z,13.45
2023-05-13T02:46:24.783Z,13.47
2023-05-13T02:50:28.463Z,13.47
2023-05-13T02:54:31.991Z,13.45
2023-05-13T02:58:37.173Z,13.46
2023-05-13T03:02:42.004Z,13.46
2023-05-13T03:06:45.899Z,13.46
2023-05-13T03:10:49.359Z,13.46
2023-05-13T03:14:52.862Z,13.45
2023-05-13T03:18:58.194Z,13.45
2023-05-13T03:23:01.508Z,13.44
2023-05-13T03:27:05.008Z,13.41
2023-05-13T03:31:08.401Z,13.42
2023-05-13T03:35:13.778Z,13.45
2023-05-13T03:39:17.186Z,13.44
2023-05-13T03:43:20.900Z,13.45
2023-05-13T03:47:24.668Z,13.42
2023-05-13T03:51:29.643Z,13.50
2023-05-13T03:55:33.373Z,13.51
2023-05-13T03:59:36.718Z,13.55
2023-05-13T04:03:40.179Z,13.58
2023-05-13T04:07:45.600Z,13.63
2023-05-13T04:11:49.213Z,13.66
2023-05-13T04:15:54.772Z,13.70
2023-05-13T04:19:58.163Z,13.75
2023-05-13T04:24:03.319Z,13.80
2023-05-13T04:28:07.801Z,13.83
2023-05-13T04:32:11.077Z,13.88
2023-05-13T04:36:15.255Z,13.93
2023-05-13T04:40:21.121Z,14.00
2023-05-13T04:44:25.109Z,14.04
2023-05-13T04:48:28.618Z,14.10
2023-05-13T04:52:32.326Z,14.14
2023-05-13T04:56:37.253Z,14.19
2023-05-13T05:00:41.207Z,14.23
2023-05-13T05:04:44.621Z,14.26
2023-05-13T05:08:47.791Z,14.31
2023-05-13T05:12:52.953Z,14.37
2023-05-13T05:16:56.733Z,14.42
2023-05-13T05:21:02.451Z,14.48
2023-05-13T05:25:07.095Z,14.51
2023-05-13T05:29:12.250Z,14.56
2023-05-13T05:33:15.927Z,14.61
2023-05-13T05:37:19.635Z,14.64
2023-05-13T05:41:23.255Z,14.68
2023-05-13T05:45:28.538Z,14.74
2023-05-13T05:49:32.037Z,14.80
2023-05-13T05:53:37.905Z,14.85
2023-05-13T05:57:41.332Z,14.89
2023-05-13T06:01:46.253Z,14.94
2023-05-13T06:05:50.029Z,14.98
2023-05-13T06:09:53.488Z,15.05
2023-05-13T06:13:57.771Z,15.15
2023-05-13T06:18:06.002Z,15.24
2023-05-13T06:22:09.291Z,15.36
2023-05-13T06:26:12.871Z,15.49
2023-05-13T06:30:16.760Z,15.61
2023-05-13T06:34:21.973Z,15.75
2023-05-13T06:38:25.583Z,15.91
2023-05-13T06:42:29.024Z,16.06
2023-05-13T06:46:32.832Z,16.22
2023-05-13T06:50:37.865Z,16.39
2023-05-13T06:54:41.312Z,16.56
2023-05-13T06:58:44.744Z,16.76
2023-05-13T07:02:49.212Z,17.00
2023-05-13T07:06:55.180Z,17.23
2023-05-13T07:10:58.681Z,17.33
2023-05-13T07:15:02.250Z,17.38
2023-05-13T07:19:05.961Z,17.43
2023-05-13T07:23:10.789Z,17.51
2023-05-13T07:27:14.042Z,17.58
2023-05-13T07:31:17.494Z,17.68
2023-05-13T07:35:21.331Z,17.75
2023-05-13T07:39:26.428Z,17.77
2023-05-13T07:43:29.812Z,17.81
2023-05-13T07:47:33.899Z,17.87
2023-05-13T07:51:38.002Z,17.97
2023-05-13T07:55:42.856Z,18.08
2023-05-13T07:59:46.688Z,18.16
2023-05-13T08:03:50.059Z,18.30
2023-05-13T08:07:54.044Z,18.48
2023-05-13T08:11:58.986Z,18.74
2023-05-13T08:16:03.024Z,19.01
2023-05-13T08:20:07.145Z,19.28
2023-05-13T08:24:10.873Z,19.54
2023-05-13T08:28:16.086Z,19.78
2023-05-13T08:32:19.710Z,19.97
2023-05-13T08:36:23.452Z,20.06
2023-05-13T08:40:26.996Z,20.17
2023-05-13T08:44:33.967Z,20.29
2023-05-13T08:48:39.003Z,20.40
2023-05-13T08:52:42.340Z,20.52
2023-05-13T08:56:46.426Z,20.61
2023-05-13T09:00:54.338Z,20.71
2023-05-13T09:05:02.232Z,20.76
2023-05-13T09:09:07.145Z,20.74
2023-05-13T09:13:10.469Z,20.71
2023-05-13T09:17:18.117Z,20.76
2023-05-13T09:21:25.558Z,20.93
2023-05-13T09:25:29.946Z,21.15
2023-05-13T09:29:33.875Z,21.46
2023-05-13T09:33:38.672Z,21.96
2023-05-13T09:37:42.443Z,22.57
2023-05-13T09:41:46.144Z,23.12
2023-05-13T09:45:50.455Z,23.40
2023-05-13T09:49:57.805Z,23.39
2023-05-13T09:54:06.890Z,23.16
2023-05-13T09:58:13.788Z,23.15
2023-05-13T10:02:19.764Z,23.23
2023-05-13T10:06:26.222Z,23.36
2023-05-13T10:10:31.305Z,23.52
2023-05-13T10:14:35.057Z,23.64
2023-05-13T10:18:38.933Z,23.82
2023-05-13T10:22:44.246Z,24.15
2023-05-13T10:26:51.885Z,24.33
2023-05-13T10:30:55.742Z,24.47
2023-05-13T10:35:04.534Z,24.47
2023-05-13T10:39:34.229Z,24.21
2023-05-13T10:43:37.967Z,23.80
2023-05-13T10:47:41.456Z,23.43
2023-05-13T10:51:48.831Z,23.20
2023-05-13T10:55:57.860Z,23.06
2023-05-13T11:00:18.553Z,22.92
2023-05-13T11:04:22.815Z,22.79
2023-05-13T11:08:39.433Z,22.72
2023-05-13T11:12:44.349Z,22.61
2023-05-13T11:16:49.930Z,22.46
2023-05-13T11:20:55.208Z,22.46
2023-05-13T11:25:07.492Z,22.43
2023-05-13T11:29:12.877Z,22.37
2023-05-13T11:33:16.531Z,22.46
2023-05-13T11:37:20.571Z,22.55
2023-05-13T11:41:25.373Z,22.57
2023-05-13T11:45:31.205Z,22.58
2023-05-13T11:49:39.577Z,22.66
2023-05-13T11:53:43.268Z,22.78
2023-05-13T11:57:50.575Z,22.99
2023-05-13T12:02:04.456Z,23.22
2023-05-13T12:06:08.075Z,23.43
2023-05-13T12:10:13.204Z,23.61
2023-05-13T12:14:17.021Z,23.75
2023-05-13T12:18:21.896Z,23.90
2023-05-13T12:22:25.450Z,24.03
2023-05-13T12:26:28.749Z,24.15
2023-05-13T12:30:36.816Z,24.28
2023-05-13T12:34:41.597Z,24.39
2023-05-13T12:38:59.894Z,24.53
2023-05-13T12:43:04.656Z,24.58
2023-05-13T12:47:09.246Z,24.58
2023-05-13T12:51:15.893Z,24.59
2023-05-13T12:55:19.690Z,24.60
2023-05-13T12:59:23.449Z,24.67
2023-05-13T13:03:26.847Z,24.64
2023-05-13T13:07:31.621Z,24.53
2023-05-13T13:11:35.323Z,24.39
2023-05-13T13:15:39.568Z,24.59
2023-05-13T13:19:43.238Z,24.80
2023-05-13T13:23:47.753Z,24.42
2023-05-13T13:27:50.881Z,24.62
2023-05-13T13:31:54.438Z,24.31
2023-05-13T13:35:58.546Z,24.30
2023-05-13T13:40:03.643Z,24.66
2023-05-13T13:44:06.883Z,24.71
2023-05-13T13:48:10.195Z,24.89
2023-05-13T13:52:13.600Z,25.09
2023-05-13T13:56:18.166Z,25.07
2023-05-13T14:00:21.593Z,24.94
2023-05-13T14:04:27.705Z,24.74
2023-05-13T14:08:31.160Z,23.98
2023-05-13T14:12:39.568Z,23.65
2023-05-13T14:16:45.293Z,23.08
2023-05-13T14:20:50.888Z,22.32
2023-05-13T14:24:59.261Z,21.45
2023-05-13T14:29:06.094Z,21.46
2023-05-13T14:33:12.354Z,21.09
2023-05-13T14:41:51.354Z,20.57
2023-05-13T14:45:55.861Z,20.46
2023-05-13T14:49:59.569Z,20.36
2023-05-13T14:54:02.577Z,20.39
2023-05-13T14:58:07.688Z,20.53
2023-05-13T15:02:14.103Z,20.69
2023-05-13T15:06:18.014Z,20.75
2023-05-13T15:10:22.031Z,20.70
2023-05-13T15:14:26.025Z,20.52
2023-05-13T15:18:30.641Z,20.28
2023-05-13T15:22:34.421Z,20.06
2023-05-13T15:26:37.593Z,19.80
2023-05-13T15:30:41.231Z,19.56
2023-05-13T15:34:46.181Z,19.38
2023-05-13T15:38:49.220Z,19.19
2023-05-13T15:42:53.096Z,19.04
2023-05-13T15:46:56.921Z,18.89
2023-05-13T15:51:03.728Z,18.76
2023-05-13T15:55:08.505Z,18.65
2023-05-13T15:59:12.092Z,18.56
2023-05-13T16:03:17.208Z,18.52
2023-05-13T16:07:22.208Z,18.53
2023-05-13T16:11:25.167Z,18.58
2023-05-13T16:15:28.748Z,18.65
2023-05-13T16:19:32.043Z,18.71
2023-05-13T16:23:37.643Z,18.78
2023-05-13T16:27:44.631Z,18.76
2023-05-13T16:31:48.403Z,18.71
2023-05-13T16:35:52.030Z,18.67
2023-05-13T16:39:57.434Z,18.58
2023-05-13T16:44:01.014Z,18.48
2023-05-13T16:48:04.534Z,18.40
2023-05-13T16:52:08.754Z,18.33
2023-05-13T16:56:13.764Z,18.31
2023-05-13T17:00:17.687Z,18.29
2023-05-13T17:04:22.091Z,18.24
2023-05-13T17:08:25.652Z,18.20
2023-05-13T17:12:30.820Z,18.11
2023-05-13T17:16:34.234Z,18.00
2023-05-13T17:20:37.521Z,17.84
2023-05-13T17:24:41.245Z,17.69
2023-05-13T17:28:46.119Z,17.54
2023-05-13T17:32:49.105Z,17.37
2023-05-13T17:36:52.539Z,17.26
2023-05-13T17:40:55.934Z,17.13
2023-05-13T17:45:02.394Z,16.92
2023-05-13T17:49:05.766Z,16.91
2023-05-13T17:53:09.115Z,16.85
2023-05-13T17:57:12.176Z,16.75
2023-05-13T18:01:17.571Z,16.67
2023-05-13T18:05:21.430Z,16.56
2023-05-13T18:09:25.045Z,16.44
2023-05-13T18:13:28.545Z,16.32
2023-05-13T18:17:33.740Z,16.22
2023-05-13T18:21:36.721Z,16.11
2023-05-13T18:25:52.145Z,16.00
2023-05-13T18:29:58.443Z,15.92
2023-05-13T18:34:03.389Z,15.84
2023-05-13T18:38:06.500Z,15.73
2023-05-13T18:42:10.400Z,15.66
2023-05-13T18:46:13.607Z,15.60
2023-05-13T18:50:18.451Z,15.56
2023-05-13T18:54:21.730Z,15.51
2023-05-13T18:58:25.278Z,15.48
2023-05-13T19:02:28.693Z,15.47
2023-05-13T19:06:34.421Z,15.46
2023-05-13T19:10:40.196Z,15.41
2023-05-13T19:14:43.956Z,15.35
2023-05-13T19:18:47.978Z,15.28
2023-05-13T19:22:53.183Z,15.22
2023-05-13T19:26:56.543Z,15.14
2023-05-13T19:31:00.207Z,15.04
2023-05-13T19:35:03.814Z,14.96
2023-05-13T19:39:08.988Z,14.87
2023-05-13T19:43:12.378Z,14.78
2023-05-13T19:47:15.624Z,14.68
2023-05-13T19:51:21.228Z,14.61
2023-05-13T19:55:27.214Z,14.54
2023-05-13T19:59:32.425Z,14.45
2023-05-13T20:03:36.020Z,14.38
2023-05-13T20:07:39.099Z,14.33
2023-05-13T20:11:44.848Z,14.29
2023-05-13T20:15:47.864Z,14.24
2023-05-13T20:19:52.692Z,14.19
2023-05-13T20:23:56.687Z,14.15
2023-05-13T20:28:01.837Z,14.11
2023-05-13T20:32:05.946Z,14.07
2023-05-13T20:36:09.406Z,14.04
2023-05-13T20:40:12.963Z,14.02
2023-05-13T20:44:17.901Z,14.00
2023-05-13T20:48:20.995Z,13.97
2023-05-13T20:52:24.793Z,13.95
2023-05-13T20:56:28.390Z,13.92
2023-05-13T21:00:33.621Z,13.90
2023-05-13T21:04:36.785Z,13.85
2023-05-13T21:08:40.738Z,13.84
2023-05-13T21:12:47.876Z,13.81
2023-05-13T21:16:52.833Z,13.78
2023-05-13T21:20:55.941Z,13.76
2023-05-13T21:24:59.780Z,13.76
2023-05-13T21:29:03.003Z,13.73
2023-05-13T21:33:08.009Z,13.71
2023-05-13T21:37:11.313Z,13.66
2023-05-13T21:41:14.496Z,13.64
2023-05-13T21:45:17.781Z,13.60
2023-05-13T21:49:22.725Z,13.57
2023-05-13T21:53:26.010Z,13.52
2023-05-13T21:57:31.333Z,13.47
2023-05-13T22:01:34.645Z,13.44
2023-05-13T22:05:44.681Z,13.43
2023-05-13T22:09:49.782Z,13.41
2023-05-13T22:13:54.708Z,13.41
2023-05-13T22:17:57.797Z,13.42
2023-05-13T22:22:02.668Z,13.42
2023-05-13T22:26:06.438Z,13.40
2023-05-13T22:30:10.784Z,13.49
2023-05-13T22:34:14.077Z,13.51
2023-05-13T22:38:19.053Z,13.56
2023-05-13T22:42:23.992Z,13.57
2023-05-13T22:46:27.431Z,13.62
2023-05-13T22:50:30.854Z,13.63
2023-05-13T22:54:35.824Z,13.66
2023-05-13T22:58:39.089Z,13.67
2023-05-13T23:02:42.607Z,13.69
2023-05-13T23:06:45.725Z,13.69
2023-05-13T23:10:50.570Z,13.70
2023-05-13T23:14:54.061Z,13.68
2023-05-13T23:18:57.686Z,13.67
2023-05-13T23:23:01.268Z,13.63
2023-05-13T23:27:06.735Z,13.61
2023-05-13T23:31:10.171Z,13.56
2023-05-13T23:35:14.483Z,13.52
2023-05-13T23:39:17.692Z,13.48
2023-05-13T23:43:22.794Z,13.45
2023-05-13T23:47:26.158Z,13.41
2023-05-13T23:51:29.574Z,13.32
2023-05-13T23:55:32.571Z,13.37
2023-05-13T23:59:37.931Z,13.39
